Time;durP1;ratioP1;P1;durP2;ratioP2;P2;SDS_P1;SDS_P2;PMS_P1;PMS_P2;Temp;Humidity;BMP_temperature;BMP_pressure;BME280_temperature;BME280_humidity;BME280_pressure;Samples;Min_cycle;Max_cycle;Signal;HPM_P1;HPM_P2
2023/05/25 00:00:24;;;;;;;7.72;2.72;;;;;;;;;;8301973;28;20446;-61
2023/05/25 00:04:25;;;;;;;5.73;2.40;;;;;;;;;;8299767;28;20553;-61
2023/05/25 00:08:26;;;;;;;8.80;2.60;;;;;;;;;;8300661;28;20522;-61
2023/05/25 00:12:26;;;;;;;8.02;2.70;;;;;;;;;;8301126;28;20101;-61
2023/05/25 00:16:26;;;;;;;8.60;2.70;;;;;;;;;;8301838;28;20123;-61
2023/05/25 00:20:27;;;;;;;8.50;2.43;;;;;;;;;;8300823;28;20025;-61
2023/05/25 00:24:30;;;;;;;7.40;2.70;;;;;;;;;;8303765;28;20144;-61
2023/05/25 00:28:30;;;;;;;7.83;2.47;;;;;;;;;;8302938;28;20043;-60
2023/05/25 00:32:30;;;;;;;8.45;2.45;;;;;;;;;;8303223;28;20141;-61
2023/05/25 00:36:31;;;;;;;6.57;2.78;;;;;;;;;;8302225;28;20486;-61
2023/05/25 00:40:31;;;;;;;7.88;2.42;;;;;;;;;;8304287;28;20050;-61
2023/05/25 00:44:33;;;;;;;6.05;2.67;;;;;;;;;;8300615;28;20127;-60
2023/05/25 00:48:33;;;;;;;8.65;2.70;;;;;;;;;;8300510;28;20086;-61
2023/05/25 00:52:34;;;;;;;5.97;2.50;;;;;;;;;;8303093;28;20093;-62
2023/05/25 00:56:36;;;;;;;5.07;2.20;;;;;;;;;;8300849;28;20037;-61
2023/05/25 01:00:40;;;;;;;6.38;2.60;;;;;;;;;;8307479;28;20120;-61
2023/05/25 01:04:44;;;;;;;5.50;2.33;;;;;;;;;;8299778;28;20593;-61
2023/05/25 01:08:51;;;;;;;4.65;2.00;;;;;;;;;;8294355;28;20035;-60
2023/05/25 01:12:52;;;;;;;5.32;2.22;;;;;;;;;;8297956;28;20075;-61
2023/05/25 01:16:53;;;;;;;4.40;2.20;;;;;;;;;;8297825;28;20148;-61
2023/05/25 01:21:11;;;;;;;9.48;2.20;;;;;;;;;;8298134;28;20886;-61
2023/05/25 01:25:15;;;;;;;5.60;2.30;;;;;;;;;;8300134;28;20052;-61
2023/05/25 01:29:17;;;;;;;3.65;2.03;;;;;;;;;;8302596;28;20139;-61
2023/05/25 01:33:17;;;;;;;4.75;2.20;;;;;;;;;;8298551;28;20462;-61
2023/05/25 01:37:19;;;;;;;5.72;2.13;;;;;;;;;;8297936;28;20440;-60
2023/05/25 01:41:19;;;;;;;4.70;2.22;;;;;;;;;;8298572;28;20136;-61
2023/05/25 01:45:19;;;;;;;3.78;2.03;;;;;;;;;;8299626;28;20045;-61
2023/05/25 01:49:25;;;;;;;4.82;2.03;;;;;;;;;;8297359;28;20036;-61
2023/05/25 01:53:28;;;;;;;5.70;2.10;;;;;;;;;;8301799;28;20445;-60
2023/05/25 01:57:30;;;;;;;7.27;2.37;;;;;;;;;;8298129;28;20060;-60
2023/05/25 02:01:32;;;;;;;5.95;2.20;;;;;;;;;;8295725;28;20107;-60
2023/05/25 02:05:32;;;;;;;8.18;2.58;;;;;;;;;;8300093;28;20632;-60
2023/05/25 02:09:32;;;;;;;3.85;2.10;;;;;;;;;;8297775;28;20025;-60
2023/05/25 02:13:32;;;;;;;4.47;2.20;;;;;;;;;;8298387;28;20508;-60
2023/05/25 02:17:35;;;;;;;8.50;2.33;;;;;;;;;;8298132;28;20037;-60
2023/05/25 02:21:37;;;;;;;4.78;2.55;;;;;;;;;;8298524;28;20334;-60
2023/05/25 02:25:37;;;;;;;6.28;2.55;;;;;;;;;;8298561;28;20102;-60
2023/05/25 02:29:37;;;;;;;4.72;2.45;;;;;;;;;;8300257;28;20058;-60
2023/05/25 02:33:37;;;;;;;8.55;3.00;;;;;;;;;;8298218;28;20044;-61
2023/05/25 02:37:38;;;;;;;5.20;2.55;;;;;;;;;;8295416;28;20141;-60
2023/05/25 02:41:38;;;;;;;6.85;2.95;;;;;;;;;;8294992;28;20113;-60
2023/05/25 02:45:38;;;;;;;9.60;2.80;;;;;;;;;;8306082;28;20076;-60
2023/05/25 02:49:38;;;;;;;4.57;2.60;;;;;;;;;;8302593;28;20040;-61
2023/05/25 02:53:39;;;;;;;9.80;2.88;;;;;;;;;;8304302;28;20271;-63
2023/05/25 02:57:39;;;;;;;6.07;2.92;;;;;;;;;;8304698;28;20140;-60
2023/05/25 03:01:40;;;;;;;7.07;2.92;;;;;;;;;;8305477;28;20025;-61
2023/05/25 03:05:41;;;;;;;7.03;2.78;;;;;;;;;;8305919;28;20030;-61
2023/05/25 03:09:41;;;;;;;3.78;2.63;;;;;;;;;;8304645;28;20036;-61
2023/05/25 03:13:41;;;;;;;5.60;2.47;;;;;;;;;;8305788;28;20495;-60
2023/05/25 03:17:42;;;;;;;5.63;3.10;;;;;;;;;;8301858;28;20796;-60
2023/05/25 03:21:42;;;;;;;6.50;3.08;;;;;;;;;;8302600;28;20305;-60
2023/05/25 03:25:42;;;;;;;7.30;3.30;;;;;;;;;;8306651;28;20974;-60
2023/05/25 03:29:42;;;;;;;6.55;3.30;;;;;;;;;;8304345;28;20040;-61
2023/05/25 03:33:42;;;;;;;6.80;3.55;;;;;;;;;;8302625;28;20038;-61
2023/05/25 03:37:43;;;;;;;5.18;3.03;;;;;;;;;;8302817;28;20235;-61
2023/05/25 03:41:43;;;;;;;8.07;3.42;;;;;;;;;;8304799;28;20028;-60
2023/05/25 03:45:43;;;;;;;8.60;3.63;;;;;;;;;;8304162;28;20032;-61
2023/05/25 03:49:43;;;;;;;6.47;3.25;;;;;;;;;;8302201;28;21241;-60
2023/05/25 03:53:44;;;;;;;9.85;3.90;;;;;;;;;;8299718;28;20035;-62
2023/05/25 03:57:44;;;;;;;5.63;3.33;;;;;;;;;;8302581;28;20109;-61
2023/05/25 04:01:44;;;;;;;6.63;3.20;;;;;;;;;;8301207;28;20037;-61
2023/05/25 04:05:44;;;;;;;6.47;3.40;;;;;;;;;;8302940;28;21017;-61
2023/05/25 04:09:44;;;;;;;6.55;3.85;;;;;;;;;;8296999;28;20037;-61
2023/05/25 04:13:45;;;;;;;5.70;3.03;;;;;;;;;;8303015;28;20140;-60
2023/05/25 04:17:45;;;;;;;7.78;3.80;;;;;;;;;;8301292;28;20370;-61
2023/05/25 04:21:45;;;;;;;8.13;3.53;;;;;;;;;;8298344;28;20020;-61
2023/05/25 04:25:46;;;;;;;9.23;3.73;;;;;;;;;;8302091;28;20021;-61
2023/05/25 04:29:48;;;;;;;7.72;3.67;;;;;;;;;;8303544;28;20272;-61
2023/05/25 04:33:49;;;;;;;6.70;3.67;;;;;;;;;;8299204;28;20029;-61
2023/05/25 04:37:50;;;;;;;8.30;4.18;;;;;;;;;;8301019;28;20025;-61
2023/05/25 04:41:51;;;;;;;7.72;3.85;;;;;;;;;;8303521;28;20651;-61
2023/05/25 04:45:53;;;;;;;7.10;3.70;;;;;;;;;;8300407;28;20144;-61
2023/05/25 04:49:53;;;;;;;7.05;3.65;;;;;;;;;;8299548;28;20039;-61
2023/05/25 04:53:53;;;;;;;11.02;3.50;;;;;;;;;;8298029;28;20034;-61
2023/05/25 04:57:53;;;;;;;12.57;4.47;;;;;;;;;;8300058;28;20059;-61
2023/05/25 05:01:54;;;;;;;13.55;4.35;;;;;;;;;;8299187;28;20041;-61
2023/05/25 05:05:54;;;;;;;5.75;3.83;;;;;;;;;;8299920;28;20017;-61
2023/05/25 05:09:54;;;;;;;8.05;3.88;;;;;;;;;;8297230;28;20045;-61
2023/05/25 05:13:55;;;;;;;7.57;3.45;;;;;;;;;;8299796;28;20037;-61
2023/05/25 05:17:55;;;;;;;5.43;3.50;;;;;;;;;;8297854;28;20131;-61
2023/05/25 05:21:55;;;;;;;9.25;3.60;;;;;;;;;;8298020;28;20024;-61
2023/05/25 05:25:55;;;;;;;9.75;3.45;;;;;;;;;;8298385;28;20425;-62
2023/05/25 05:29:56;;;;;;;6.70;2.97;;;;;;;;;;8298238;28;20021;-61
2023/05/25 05:33:56;;;;;;;8.10;3.10;;;;;;;;;;8298696;28;20048;-61
2023/05/25 05:37:56;;;;;;;9.23;3.38;;;;;;;;;;8300032;28;20025;-61
2023/05/25 05:41:56;;;;;;;7.00;3.38;;;;;;;;;;8300784;28;20057;-61
2023/05/25 05:45:57;;;;;;;7.65;3.33;;;;;;;;;;8299318;28;20055;-62
2023/05/25 05:49:57;;;;;;;5.43;2.90;;;;;;;;;;8298553;28;20041;-62
2023/05/25 05:53:57;;;;;;;8.13;3.42;;;;;;;;;;8300403;28;20060;-62
2023/05/25 05:57:58;;;;;;;6.90;3.23;;;;;;;;;;8300108;28;20041;-62
2023/05/25 06:01:58;;;;;;;9.30;3.07;;;;;;;;;;8299381;28;20029;-62
2023/05/25 06:05:58;;;;;;;7.93;3.20;;;;;;;;;;8299985;28;20292;-62
2023/05/25 06:09:58;;;;;;;6.20;2.67;;;;;;;;;;8294227;28;20086;-63
2023/05/25 06:13:59;;;;;;;7.10;3.08;;;;;;;;;;8298056;28;20462;-62
2023/05/25 06:17:59;;;;;;;8.40;3.10;;;;;;;;;;8295553;28;20041;-62
2023/05/25 06:21:59;;;;;;;8.23;2.95;;;;;;;;;;8297235;28;20028;-62
2023/05/25 06:26:04;;;;;;;5.55;2.83;;;;;;;;;;8296112;28;20021;-62
2023/05/25 06:30:04;;;;;;;7.35;2.78;;;;;;;;;;8294574;28;20033;-63
2023/05/25 06:34:04;;;;;;;8.40;2.58;;;;;;;;;;8298030;28;20087;-62
2023/05/25 06:38:05;;;;;;;5.63;2.55;;;;;;;;;;8297520;28;20025;-62
2023/05/25 06:42:05;;;;;;;8.68;2.70;;;;;;;;;;8295651;28;20451;-61
2023/05/25 06:46:05;;;;;;;6.47;2.70;;;;;;;;;;8292846;28;20123;-62
2023/05/25 06:50:06;;;;;;;7.60;2.60;;;;;;;;;;8291533;28;20288;-63
2023/05/25 06:54:07;;;;;;;6.38;2.78;;;;;;;;;;8292144;28;20502;-63
2023/05/25 06:58:07;;;;;;;6.78;2.58;;;;;;;;;;8293278;28;20159;-63
2023/05/25 07:02:07;;;;;;;8.30;2.40;;;;;;;;;;8292413;28;20029;-63
2023/05/25 07:06:10;;;;;;;7.15;2.70;;;;;;;;;;8291234;28;20277;-63
2023/05/25 07:10:10;;;;;;;7.75;2.80;;;;;;;;;;8296825;28;20072;-63
2023/05/25 07:14:10;;;;;;;6.90;2.77;;;;;;;;;;8297991;28;20029;-62
2023/05/25 07:18:11;;;;;;;7.07;2.80;;;;;;;;;;8294837;28;20036;-62
2023/05/25 07:22:11;;;;;;;6.18;2.70;;;;;;;;;;8294863;28;20286;-63
2023/05/25 07:26:12;;;;;;;6.32;2.20;;;;;;;;;;8296381;28;20375;-63
2023/05/25 07:30:12;;;;;;;6.13;2.85;;;;;;;;;;8302391;28;20136;-63
2023/05/25 07:34:13;;;;;;;6.43;2.58;;;;;;;;;;8300843;28;20064;-63
2023/05/25 07:38:13;;;;;;;10.00;2.60;;;;;;;;;;8299919;28;20608;-62
2023/05/25 07:42:19;;;;;;;8.38;2.67;;;;;;;;;;8302648;28;20029;-62
2023/05/25 07:46:23;;;;;;;6.32;2.90;;;;;;;;;;8301524;28;20127;-63
2023/05/25 07:50:24;;;;;;;8.73;2.55;;;;;;;;;;8300254;28;20070;-63
2023/05/25 07:54:24;;;;;;;6.87;2.53;;;;;;;;;;8300576;28;20683;-63
2023/05/25 07:58:24;;;;;;;4.00;2.38;;;;;;;;;;8299610;28;20456;-63
2023/05/25 08:02:24;;;;;;;8.93;2.75;;;;;;;;;;8302717;28;20455;-62
2023/05/25 08:06:25;;;;;;;11.75;2.90;;;;;;;;;;8302344;28;20025;-62
2023/05/25 08:10:30;;;;;;;6.80;2.70;;;;;;;;;;8298394;28;20076;-64
2023/05/25 08:14:31;;;;;;;8.10;2.75;;;;;;;;;;8301181;28;20951;-63
2023/05/25 08:18:31;;;;;;;7.47;3.00;;;;;;;;;;8297023;28;20044;-62
2023/05/25 08:22:31;;;;;;;6.55;2.53;;;;;;;;;;8301527;28;20028;-63
2023/05/25 08:26:31;;;;;;;8.07;2.67;;;;;;;;;;8302358;28;20025;-64
2023/05/25 08:30:32;;;;;;;6.88;2.80;;;;;;;;;;8298475;28;20708;-63
2023/05/25 08:34:33;;;;;;;7.30;2.67;;;;;;;;;;8301585;28;20136;-63
2023/05/25 08:38:33;;;;;;;7.22;2.72;;;;;;;;;;8300496;28;20080;-64
2023/05/25 08:42:33;;;;;;;9.60;2.65;;;;;;;;;;8300835;28;20149;-63
2023/05/25 08:46:33;;;;;;;9.30;2.85;;;;;;;;;;8298814;28;20088;-63
2023/05/25 08:50:34;;;;;;;9.07;2.63;;;;;;;;;;8299185;28;20024;-63
2023/05/25 08:54:35;;;;;;;8.38;2.63;;;;;;;;;;8297935;28;20220;-63
2023/05/25 08:58:39;;;;;;;8.45;2.85;;;;;;;;;;8300109;28;20032;-63
2023/05/25 09:02:51;;;;;;;6.65;3.15;;;;;;;;;;8299102;28;20033;-63
2023/05/25 09:06:52;;;;;;;9.70;2.90;;;;;;;;;;8298226;28;20025;-63
2023/05/25 09:10:52;;;;;;;9.23;3.00;;;;;;;;;;8298651;28;20029;-63
2023/05/25 09:14:53;;;;;;;8.52;2.40;;;;;;;;;;8297204;28;20123;-63
2023/05/25 09:18:53;;;;;;;6.85;2.70;;;;;;;;;;8300144;28;20586;-63
2023/05/25 09:22:53;;;;;;;8.30;2.67;;;;;;;;;;8300313;28;20021;-63
2023/05/25 09:26:53;;;;;;;9.32;2.65;;;;;;;;;;8301462;28;20385;-63
2023/05/25 09:30:54;;;;;;;8.15;2.50;;;;;;;;;;8297068;28;20394;-63
2023/05/25 09:34:56;;;;;;;7.05;2.50;;;;;;;;;;8296037;28;20031;-63
2023/05/25 09:38:56;;;;;;;6.85;2.20;;;;;;;;;;8314480;28;20525;-63
2023/05/25 09:42:57;;;;;;;5.28;2.25;;;;;;;;;;8298883;28;20021;-63
2023/05/25 09:46:57;;;;;;;10.25;2.25;;;;;;;;;;8298407;28;20624;-63
2023/05/25 09:50:57;;;;;;;8.75;2.50;;;;;;;;;;8297010;28;20513;-63
2023/05/25 09:54:58;;;;;;;5.22;2.28;;;;;;;;;;8296881;28;20865;-63
2023/05/25 09:58:58;;;;;;;5.22;2.03;;;;;;;;;;8299786;28;20138;-63
2023/05/25 10:02:58;;;;;;;8.37;2.43;;;;;;;;;;8295790;28;20033;-63
2023/05/25 10:06:59;;;;;;;8.97;2.50;;;;;;;;;;8298123;28;20298;-63
2023/05/25 10:11:00;;;;;;;6.75;2.60;;;;;;;;;;8292159;28;20287;-63
2023/05/25 10:15:05;;;;;;;4.15;2.00;;;;;;;;;;8298929;28;20347;-63
2023/05/25 10:19:07;;;;;;;6.00;2.40;;;;;;;;;;8294404;28;20157;-63
2023/05/25 10:23:11;;;;;;;5.60;2.70;;;;;;;;;;8296902;28;20029;-63
2023/05/25 10:27:14;;;;;;;5.95;2.65;;;;;;;;;;8295556;28;20021;-63
2023/05/25 10:31:15;;;;;;;6.18;2.67;;;;;;;;;;8296679;28;20037;-63
2023/05/25 10:35:16;;;;;;;3.83;2.10;;;;;;;;;;8296383;28;20095;-63
2023/05/25 10:39:16;;;;;;;7.78;2.45;;;;;;;;;;8295961;28;20030;-63
2023/05/25 10:43:17;;;;;;;4.13;2.08;;;;;;;;;;8296700;28;20034;-63
2023/05/25 10:47:18;;;;;;;5.57;2.35;;;;;;;;;;8296643;28;20045;-63
2023/05/25 10:51:18;;;;;;;5.43;2.38;;;;;;;;;;8295452;28;20048;-63
2023/05/25 10:55:19;;;;;;;5.22;1.92;;;;;;;;;;8297770;28;20021;-63
2023/05/25 10:59:28;;;;;;;3.97;2.13;;;;;;;;;;8298443;28;20269;-63
2023/05/25 11:03:44;;;;;;;5.82;2.47;;;;;;;;;;8296176;28;20041;-63
2023/05/25 11:07:54;;;;;;;5.18;2.45;;;;;;;;;;8303909;28;20443;-63
2023/05/25 11:11:58;;;;;;;3.63;2.10;;;;;;;;;;8303441;28;20036;-63
2023/05/25 11:16:08;;;;;;;4.30;2.22;;;;;;;;;;8303855;28;20049;-63
2023/05/25 11:20:19;;;;;;;3.92;2.33;;;;;;;;;;8300679;28;20033;-63
2023/05/25 11:24:20;;;;;;;6.20;2.30;;;;;;;;;;8302944;28;20104;-63
2023/05/25 11:28:21;;;;;;;5.82;2.40;;;;;;;;;;8297330;28;20431;-64
2023/05/25 11:32:21;;;;;;;6.43;2.50;;;;;;;;;;8301107;28;20033;-63
2023/05/25 11:36:22;;;;;;;5.80;2.50;;;;;;;;;;8304020;28;20135;-63
2023/05/25 11:40:22;;;;;;;5.68;2.47;;;;;;;;;;8302791;28;20866;-63
2023/05/25 11:44:29;;;;;;;3.70;1.90;;;;;;;;;;8301322;28;20021;-63
2023/05/25 11:48:29;;;;;;;4.68;2.00;;;;;;;;;;8298346;28;20759;-63
2023/05/25 11:52:30;;;;;;;3.78;1.90;;;;;;;;;;8302376;28;20027;-63
2023/05/25 11:56:31;;;;;;;4.05;2.30;;;;;;;;;;8304576;28;20091;-63
2023/05/25 12:00:31;;;;;;;6.32;2.20;;;;;;;;;;8302231;28;20045;-63
2023/05/25 12:04:32;;;;;;;3.40;1.90;;;;;;;;;;8300270;28;20024;-63
2023/05/25 12:08:33;;;;;;;4.47;2.00;;;;;;;;;;8300828;28;20025;-63
2023/05/25 12:12:43;;;;;;;5.32;2.35;;;;;;;;;;8301290;28;20025;-63
2023/05/25 12:16:43;;;;;;;3.35;2.20;;;;;;;;;;8294617;28;20053;-62
2023/05/25 12:20:43;;;;;;;4.45;2.10;;;;;;;;;;8299037;28;20025;-63
2023/05/25 12:24:44;;;;;;;4.28;2.10;;;;;;;;;;8301794;28;20170;-63
2023/05/25 12:29:03;;;;;;;3.80;2.20;;;;;;;;;;8302757;28;20140;-63
2023/05/25 12:33:03;;;;;;;3.85;2.03;;;;;;;;;;8303318;28;20287;-63
2023/05/25 12:37:03;;;;;;;5.80;2.27;;;;;;;;;;8301619;28;20025;-63
2023/05/25 12:41:05;;;;;;;3.80;2.27;;;;;;;;;;8301534;28;20029;-63
2023/05/25 12:45:05;;;;;;;4.60;2.40;;;;;;;;;;8300409;28;20911;-63
2023/05/25 12:49:20;;;;;;;4.60;2.20;;;;;;;;;;8302647;28;21094;-63
2023/05/25 12:53:20;;;;;;;3.00;2.10;;;;;;;;;;8300426;28;20041;-63
2023/05/25 12:57:20;;;;;;;4.95;2.17;;;;;;;;;;8300287;28;20774;-63
2023/05/25 13:01:21;;;;;;;4.25;2.33;;;;;;;;;;8299103;28;20696;-63
2023/05/25 13:05:21;;;;;;;3.87;2.10;;;;;;;;;;8302014;28;20086;-63
2023/05/25 13:09:27;;;;;;;4.97;2.20;;;;;;;;;;8299014;28;20024;-63
2023/05/25 13:13:27;;;;;;;2.80;2.10;;;;;;;;;;8296999;28;20037;-63
2023/05/25 13:17:27;;;;;;;3.72;2.17;;;;;;;;;;8296549;28;20036;-63
2023/05/25 13:21:28;;;;;;;5.13;2.10;;;;;;;;;;8297496;28;20025;-63
2023/05/25 13:25:28;;;;;;;7.93;2.42;;;;;;;;;;8291297;28;20017;-62
2023/05/25 13:29:28;;;;;;;3.95;2.50;;;;;;;;;;8296414;28;20896;-63
2023/05/25 13:33:29;;;;;;;3.72;2.13;;;;;;;;;;8297474;28;20418;-63
2023/05/25 13:37:30;;;;;;;4.15;2.28;;;;;;;;;;8297042;28;20819;-62
2023/05/25 13:41:30;;;;;;;5.05;2.60;;;;;;;;;;8297566;28;20025;-63
2023/05/25 13:45:30;;;;;;;3.67;2.40;;;;;;;;;;8296274;28;20034;-63
2023/05/25 13:49:30;;;;;;;4.18;2.63;;;;;;;;;;8296221;28;21785;-63
2023/05/25 13:53:31;;;;;;;4.55;2.53;;;;;;;;;;8296118;28;20033;-63
2023/05/25 13:57:31;;;;;;;4.38;2.50;;;;;;;;;;8291259;28;20036;-64
2023/05/25 14:01:31;;;;;;;5.00;2.60;;;;;;;;;;8291329;28;20061;-63
2023/05/25 14:05:32;;;;;;;3.17;2.45;;;;;;;;;;8290975;28;20029;-63
2023/05/25 14:09:32;;;;;;;4.15;2.65;;;;;;;;;;8290525;28;20931;-63
2023/05/25 14:13:34;;;;;;;4.30;2.40;;;;;;;;;;8286713;28;20102;-63
2023/05/25 14:17:35;;;;;;;;;;;;;;;;;;8291564;28;20045;-63
2023/05/25 14:21:36;;;;;;;4.53;2.80;;;;;;;;;;8286801;28;20521;-63
2023/05/25 14:25:36;;;;;;;3.92;2.17;;;;;;;;;;8296533;28;20497;-63
2023/05/25 14:29:37;;;;;;;2.83;2.17;;;;;;;;;;8291637;28;20516;-63
2023/05/25 14:33:38;;;;;;;4.85;2.30;;;;;;;;;;8290670;28;20885;-63
2023/05/25 14:37:38;;;;;;;5.27;2.43;;;;;;;;;;8287579;28;20144;-63
2023/05/25 14:41:38;;;;;;;6.75;2.50;;;;;;;;;;8300858;28;20029;-63
2023/05/25 14:45:38;;;;;;;6.00;2.30;;;;;;;;;;8300422;28;20069;-63
2023/05/25 14:49:38;;;;;;;6.27;2.43;;;;;;;;;;8299007;28;20090;-63
2023/05/25 14:53:38;;;;;;;3.85;2.47;;;;;;;;;;8294670;28;20469;-63
2023/05/25 14:57:39;;;;;;;5.10;2.53;;;;;;;;;;8302516;28;20941;-63
2023/05/25 15:01:39;;;;;;;4.53;2.37;;;;;;;;;;8298129;28;20241;-63
2023/05/25 15:05:39;;;;;;;3.55;2.35;;;;;;;;;;8299214;28;20434;-63
2023/05/25 15:09:41;;;;;;;4.88;2.47;;;;;;;;;;8299981;28;20119;-63
2023/05/25 15:13:41;;;;;;;5.03;2.50;;;;;;;;;;8302207;28;20156;-63
2023/05/25 15:17:41;;;;;;;4.80;2.53;;;;;;;;;;8299628;28;20033;-63
2023/05/25 15:21:41;;;;;;;4.13;2.20;;;;;;;;;;8302036;28;20029;-62
2023/05/25 15:25:41;;;;;;;5.45;2.67;;;;;;;;;;8300116;28;20814;-63
2023/05/25 15:29:42;;;;;;;5.00;2.37;;;;;;;;;;8297119;28;20022;-62
2023/05/25 15:33:42;;;;;;;4.18;2.30;;;;;;;;;;8297583;28;20045;-61
2023/05/25 15:37:42;;;;;;;5.30;2.30;;;;;;;;;;8294274;28;20035;-62
2023/05/25 15:41:43;;;;;;;3.65;2.40;;;;;;;;;;8297717;28;20045;-62
2023/05/25 15:45:43;;;;;;;6.87;2.70;;;;;;;;;;8300263;28;20143;-61
2023/05/25 15:49:43;;;;;;;4.68;2.50;;;;;;;;;;8294193;28;20417;-62
2023/05/25 15:53:43;;;;;;;4.35;2.50;;;;;;;;;;8298876;28;20060;-61
2023/05/25 15:57:44;;;;;;;4.30;2.63;;;;;;;;;;8295227;28;20036;-62
2023/05/25 16:01:44;;;;;;;3.73;2.40;;;;;;;;;;8300501;28;20390;-62
2023/05/25 16:05:44;;;;;;;6.85;2.70;;;;;;;;;;8299582;28;20035;-62
2023/05/25 16:09:44;;;;;;;4.38;2.30;;;;;;;;;;8297075;28;20041;-62
2023/05/25 16:13:44;;;;;;;8.87;2.53;;;;;;;;;;8301607;28;20737;-62
2023/05/25 16:17:45;;;;;;;4.43;2.33;;;;;;;;;;8294642;28;20299;-62
2023/05/25 16:21:45;;;;;;;5.80;2.60;;;;;;;;;;8297148;28;20021;-62
2023/05/25 16:25:45;;;;;;;5.30;2.40;;;;;;;;;;8294331;28;20021;-62
2023/05/25 16:29:46;;;;;;;5.17;2.27;;;;;;;;;;8295136;28;20075;-62
2023/05/25 16:33:46;;;;;;;6.95;2.55;;;;;;;;;;8295556;28;20136;-62
2023/05/25 16:37:46;;;;;;;3.92;2.47;;;;;;;;;;8294505;28;20064;-62
2023/05/25 16:41:46;;;;;;;7.90;2.47;;;;;;;;;;8288902;28;20029;-62
2023/05/25 16:45:46;;;;;;;3.08;2.42;;;;;;;;;;8292074;28;20047;-62
2023/05/25 16:49:47;;;;;;;6.22;2.67;;;;;;;;;;8296678;28;20587;-62
2023/05/25 16:53:48;;;;;;;5.20;2.70;;;;;;;;;;8293828;28;20025;-62
2023/05/25 16:57:48;;;;;;;4.00;2.03;;;;;;;;;;8295385;28;20036;-62
2023/05/25 17:01:48;;;;;;;4.65;2.55;;;;;;;;;;8292296;28;20288;-62
2023/05/25 17:05:49;;;;;;;5.50;2.65;;;;;;;;;;8296259;28;20029;-62
2023/05/25 17:09:50;;;;;;;6.68;2.58;;;;;;;;;;8282290;28;20839;-62
2023/05/25 17:13:51;;;;;;;5.43;2.83;;;;;;;;;;8294162;28;20029;-62
2023/05/25 17:17:51;;;;;;;7.43;2.70;;;;;;;;;;8293954;28;20044;-62
2023/05/25 17:21:52;;;;;;;7.57;2.70;;;;;;;;;;8291607;28;20028;-61
2023/05/25 17:25:52;;;;;;;6.00;2.75;;;;;;;;;;8293469;28;20047;-62
2023/05/25 17:29:52;;;;;;;7.75;2.58;;;;;;;;;;8293380;28;20048;-62
2023/05/25 17:33:53;;;;;;;3.75;2.50;;;;;;;;;;8288750;28;20040;-61
2023/05/25 17:37:53;;;;;;;4.95;2.53;;;;;;;;;;8285655;28;20363;-61
2023/05/25 17:41:53;;;;;;;8.20;2.90;;;;;;;;;;8289699;28;20148;-62
2023/05/25 17:45:54;;;;;;;5.32;2.58;;;;;;;;;;8293077;28;20040;-62
2023/05/25 17:49:54;;;;;;;3.88;2.70;;;;;;;;;;8290993;28;20061;-61
2023/05/25 17:53:55;;;;;;;3.35;2.40;;;;;;;;;;8291819;28;20053;-61
2023/05/25 17:57:55;;;;;;;6.83;2.57;;;;;;;;;;8291904;28;20022;-62
2023/05/25 18:01:55;;;;;;;7.43;2.90;;;;;;;;;;8293106;28;20033;-62
2023/05/25 18:05:55;;;;;;;4.00;2.42;;;;;;;;;;8293522;28;20021;-62
2023/05/25 18:09:55;;;;;;;6.00;2.60;;;;;;;;;;8293088;28;20139;-61
2023/05/25 18:13:56;;;;;;;7.72;2.80;;;;;;;;;;8289870;28;20060;-62
2023/05/25 18:17:56;;;;;;;6.22;2.85;;;;;;;;;;8293365;28;20608;-61
2023/05/25 18:21:56;;;;;;;5.25;3.03;;;;;;;;;;8292087;28;20029;-61
2023/05/25 18:25:56;;;;;;;6.63;2.88;;;;;;;;;;8290733;28;20151;-61
2023/05/25 18:29:57;;;;;;;4.53;2.77;;;;;;;;;;8292147;28;20155;-61
2023/05/25 18:33:58;;;;;;;5.35;2.80;;;;;;;;;;8292883;28;20050;-61
2023/05/25 18:37:58;;;;;;;6.53;2.72;;;;;;;;;;8290784;28;20450;-61
2023/05/25 18:41:58;;;;;;;7.78;2.88;;;;;;;;;;8285942;28;20075;-61
2023/05/25 18:45:58;;;;;;;5.40;2.80;;;;;;;;;;8284210;28;20052;-62
2023/05/25 18:49:59;;;;;;;4.95;3.00;;;;;;;;;;8285973;28;20339;-61
2023/05/25 18:53:59;;;;;;;7.20;2.92;;;;;;;;;;8295363;28;20044;-62
2023/05/25 18:57:59;;;;;;;4.20;2.67;;;;;;;;;;8286345;28;20660;-62
2023/05/25 19:02:00;;;;;;;5.20;3.13;;;;;;;;;;8286468;28;20391;-61
2023/05/25 19:06:00;;;;;;;5.07;3.10;;;;;;;;;;8284978;28;20025;-61
2023/05/25 19:10:00;;;;;;;6.10;2.90;;;;;;;;;;8292566;28;20076;-61
2023/05/25 19:14:00;;;;;;;4.20;3.05;;;;;;;;;;8284513;28;20025;-62
2023/05/25 19:18:04;;;;;;;4.40;3.00;;;;;;;;;;8281407;28;20111;-62
2023/05/25 19:22:05;;;;;;;;;;;;;;;;;;8287167;28;20040;-61
2023/05/25 19:26:05;;;;;;;6.72;3.30;;;;;;;;;;8289669;28;19913;-61
2023/05/25 19:30:06;;;;;;;6.25;3.13;;;;;;;;;;8288298;28;20027;-62
2023/05/25 19:34:06;;;;;;;6.07;3.05;;;;;;;;;;8291528;28;20029;-61
2023/05/25 19:38:06;;;;;;;6.37;3.07;;;;;;;;;;8289814;28;20032;-61
2023/05/25 19:42:07;;;;;;;7.75;2.97;;;;;;;;;;8289729;28;20291;-61
2023/05/25 19:46:07;;;;;;;8.27;3.70;;;;;;;;;;8290061;28;20033;-62
2023/05/25 19:50:07;;;;;;;10.15;3.53;;;;;;;;;;8291599;28;20029;-61
2023/05/25 19:54:09;;;;;;;5.45;3.42;;;;;;;;;;8291085;28;20689;-61
2023/05/25 19:58:09;;;;;;;7.75;3.97;;;;;;;;;;8291136;28;20025;-61
2023/05/25 20:02:10;;;;;;;7.28;3.42;;;;;;;;;;8291271;28;20037;-61
2023/05/25 20:06:10;;;;;;;7.00;3.30;;;;;;;;;;8291267;28;20028;-61
2023/05/25 20:10:11;;;;;;;5.28;3.60;;;;;;;;;;8291517;28;20057;-61
2023/05/25 20:14:11;;;;;;;5.23;3.30;;;;;;;;;;8291475;28;20047;-61
2023/05/25 20:18:11;;;;;;;7.30;3.50;;;;;;;;;;8289675;28;20033;-61
2023/05/25 20:22:11;;;;;;;5.82;3.05;;;;;;;;;;8292409;28;20041;-61
2023/05/25 20:26:11;;;;;;;6.20;3.30;;;;;;;;;;8290653;28;20025;-61
2023/05/25 20:30:11;;;;;;;5.80;3.50;;;;;;;;;;8292526;28;20072;-61
2023/05/25 20:34:12;;;;;;;6.78;2.97;;;;;;;;;;8291166;28;20344;-61
2023/05/25 20:38:12;;;;;;;6.53;3.20;;;;;;;;;;8287941;28;20021;-61
2023/05/25 20:42:12;;;;;;;5.25;3.08;;;;;;;;;;8292521;28;20028;-61
2023/05/25 20:46:13;;;;;;;7.55;3.22;;;;;;;;;;8290497;28;20036;-61
2023/05/25 20:50:13;;;;;;;8.38;3.38;;;;;;;;;;8288380;28;20042;-61
2023/05/25 20:54:13;;;;;;;7.18;3.30;;;;;;;;;;8291436;28;20024;-61
2023/05/25 20:58:13;;;;;;;11.35;3.35;;;;;;;;;;8288362;28;20028;-61
2023/05/25 21:02:13;;;;;;;5.25;3.28;;;;;;;;;;8293677;28;20148;-61
2023/05/25 21:06:14;;;;;;;4.18;2.95;;;;;;;;;;8291434;28;20057;-61
2023/05/25 21:10:15;;;;;;;7.07;3.10;;;;;;;;;;8288924;28;20214;-61
2023/05/25 21:14:15;;;;;;;8.57;3.03;;;;;;;;;;8291817;28;20489;-61
2023/05/25 21:18:15;;;;;;;5.10;3.03;;;;;;;;;;8289731;28;20037;-61
2023/05/25 21:22:16;;;;;;;8.13;3.15;;;;;;;;;;8293570;28;20437;-61
2023/05/25 21:26:16;;;;;;;7.13;3.22;;;;;;;;;;8291580;28;20024;-61
2023/05/25 21:30:18;;;;;;;8.90;3.47;;;;;;;;;;8290773;28;20033;-61
2023/05/25 21:34:18;;;;;;;9.88;3.33;;;;;;;;;;8289856;28;20022;-61
2023/05/25 21:38:18;;;;;;;6.80;3.20;;;;;;;;;;8288313;28;20032;-61
2023/05/25 21:42:18;;;;;;;4.70;2.55;;;;;;;;;;8291020;28;20123;-61
2023/05/25 21:46:18;;;;;;;3.58;2.63;;;;;;;;;;8290317;28;20045;-61
2023/05/25 21:50:19;;;;;;;6.68;3.00;;;;;;;;;;8288309;28;20486;-61
2023/05/25 21:54:19;;;;;;;5.20;3.13;;;;;;;;;;8287527;28;20136;-61
2023/05/25 21:58:19;;;;;;;5.63;2.90;;;;;;;;;;8287051;28;20021;-61
2023/05/25 22:02:19;;;;;;;5.25;2.67;;;;;;;;;;8288618;28;20147;-61
2023/05/25 22:06:19;;;;;;;7.10;2.90;;;;;;;;;;8287485;28;20350;-62
2023/05/25 22:10:20;;;;;;;4.97;3.28;;;;;;;;;;8284750;28;20124;-61
2023/05/25 22:14:20;;;;;;;6.97;3.00;;;;;;;;;;8288504;28;20516;-61
2023/05/25 22:18:20;;;;;;;5.35;3.25;;;;;;;;;;8286030;28;20608;-61
2023/05/25 22:22:20;;;;;;;5.57;3.17;;;;;;;;;;8287913;28;20029;-61
2023/05/25 22:26:21;;;;;;;6.70;3.28;;;;;;;;;;8293250;28;20118;-61
2023/05/25 22:30:22;;;;;;;4.28;3.15;;;;;;;;;;8292065;28;20021;-61
2023/05/25 22:34:22;;;;;;;5.13;2.92;;;;;;;;;;8288763;28;20382;-61
2023/05/25 22:38:22;;;;;;;6.38;2.92;;;;;;;;;;8287982;28;20056;-61
2023/05/25 22:42:22;;;;;;;4.95;3.00;;;;;;;;;;8288670;28;20033;-61
2023/05/25 22:46:22;;;;;;;8.73;3.17;;;;;;;;;;8284409;28;20033;-61
2023/05/25 22:50:22;;;;;;;7.13;2.88;;;;;;;;;;8287202;28;20361;-63
2023/05/25 22:54:23;;;;;;;9.07;3.05;;;;;;;;;;8288780;28;20761;-60
2023/05/25 22:58:23;;;;;;;3.95;2.97;;;;;;;;;;8290998;28;20207;-61
2023/05/25 23:02:23;;;;;;;4.57;2.83;;;;;;;;;;8294963;28;20099;-61
2023/05/25 23:06:23;;;;;;;5.87;2.97;;;;;;;;;;8295823;28;20025;-61
2023/05/25 23:10:24;;;;;;;5.23;2.73;;;;;;;;;;8298046;28;20276;-61
2023/05/25 23:14:24;;;;;;;7.43;3.13;;;;;;;;;;8301560;28;20275;-61
2023/05/25 23:18:25;;;;;;;6.95;3.15;;;;;;;;;;8296027;28;20702;-61
2023/05/25 23:22:25;;;;;;;7.83;3.57;;;;;;;;;;8295751;28;20084;-61
2023/05/25 23:26:25;;;;;;;5.15;3.55;;;;;;;;;;8292747;28;20039;-61
2023/05/25 23:30:26;;;;;;;5.85;3.25;;;;;;;;;;8298294;28;20072;-61
2023/05/25 23:34:26;;;;;;;6.40;3.30;;;;;;;;;;8300682;28;20621;-61
2023/05/25 23:38:26;;;;;;;4.72;3.28;;;;;;;;;;8301572;28;20067;-61
2023/05/25 23:42:27;;;;;;;4.53;3.15;;;;;;;;;;8300569;28;20030;-61
2023/05/25 23:46:30;;;;;;;7.22;3.30;;;;;;;;;;8297662;28;20033;-61
2023/05/25 23:50:30;;;;;;;8.03;3.30;;;;;;;;;;8299034;28;20843;-61
2023/05/25 23:54:30;;;;;;;5.78;3.40;;;;;;;;;;8298949;28;20071;-61
2023/05/25 23:58:30;;;;;;;4.28;3.10;;;;;;;;;;8298686;28;20029;-61
